createdAt,value
2022-08-23T00:02:01.079Z,17.95
2022-08-23T00:04:34.843Z,17.93
2022-08-23T00:07:03.495Z,17.83
2022-08-23T00:09:31.154Z,17.59
2022-08-23T00:12:10.947Z,17.38
2022-08-23T00:14:41.019Z,17.60
2022-08-23T00:17:12.127Z,17.68
2022-08-23T00:20:01.454Z,17.65
2022-08-23T00:22:29.107Z,17.47
2022-08-23T00:24:56.688Z,17.61
2022-08-23T00:27:24.317Z,17.37
2022-08-23T00:29:53.977Z,17.21
2022-08-23T00:32:24.141Z,17.03
2022-08-23T00:34:52.036Z,16.92
2022-08-23T00:37:22.259Z,17.32
2022-08-23T00:39:50.432Z,17.37
2022-08-23T00:42:47.656Z,17.56
2022-08-23T00:45:35.446Z,17.37
2022-08-23T00:48:04.084Z,17.41
2022-08-23T00:50:36.810Z,17.48
2022-08-23T00:53:12.624Z,17.48
2022-08-23T00:55:42.839Z,17.44
2022-08-23T00:58:10.812Z,17.30
2022-08-23T01:00:38.435Z,17.47
2022-08-23T01:03:09.112Z,17.36
2022-08-23T01:05:46.175Z,17.46
2022-08-23T01:08:15.243Z,17.10
2022-08-23T01:10:46.263Z,17.13
2022-08-23T01:13:16.072Z,17.15
2022-08-23T01:15:47.136Z,16.98
2022-08-23T01:18:17.859Z,16.76
2022-08-23T01:20:50.246Z,16.91
2022-08-23T01:23:30.284Z,17.34
2022-08-23T01:25:58.359Z,17.37
2022-08-23T01:28:26.152Z,17.45
2022-08-23T01:30:53.828Z,17.32
2022-08-23T01:33:21.475Z,17.46
2022-08-23T01:35:51.375Z,17.43
2022-08-23T01:38:19.009Z,17.49
2022-08-23T01:40:48.048Z,17.49
2022-08-23T01:43:18.043Z,17.08
2022-08-23T01:45:45.702Z,16.98
2022-08-23T01:48:13.651Z,16.85
2022-08-23T01:50:41.364Z,17.09
2022-08-23T01:53:09.553Z,17.23
2022-08-23T01:55:37.695Z,17.10
2022-08-23T01:58:08.000Z,17.22
2022-08-23T02:00:38.179Z,17.01
2022-08-23T02:03:06.642Z,17.34
2022-08-23T02:05:34.854Z,17.04
2022-08-23T02:08:23.005Z,16.96
2022-08-23T02:10:50.874Z,16.74
2022-08-23T02:13:20.084Z,16.73
2022-08-23T02:15:51.110Z,16.74
2022-08-23T02:18:19.512Z,16.88
2022-08-23T02:20:47.623Z,16.86
2022-08-23T02:23:15.215Z,16.97
2022-08-23T02:25:43.717Z,16.85
2022-08-23T02:28:11.644Z,16.80
2022-08-23T02:30:41.012Z,16.63
2022-08-23T02:33:09.587Z,16.36
2022-08-23T02:35:38.388Z,16.24
2022-08-23T02:38:06.735Z,16.14
2022-08-23T02:40:35.227Z,15.98
2022-08-23T02:43:03.436Z,15.83
2022-08-23T02:45:31.080Z,15.83
2022-08-23T02:48:00.159Z,15.89
2022-08-23T02:50:28.163Z,15.97
2022-08-23T02:52:56.630Z,16.00
2022-08-23T02:55:25.253Z,15.95
2022-08-23T02:57:53.006Z,16.03
2022-08-23T03:00:22.074Z,16.13
2022-08-23T03:02:49.688Z,16.33
2022-08-23T03:05:18.704Z,16.44
2022-08-23T03:07:46.407Z,16.42
2022-08-23T03:10:14.906Z,16.41
2022-08-23T03:12:42.500Z,16.46
2022-08-23T03:15:11.574Z,16.43
2022-08-23T03:17:39.911Z,16.45
2022-08-23T03:20:09.002Z,16.35
2022-08-23T03:22:38.420Z,16.33
2022-08-23T03:25:07.235Z,16.30
2022-08-23T03:27:38.341Z,16.29
2022-08-23T03:30:17.755Z,16.21
2022-08-23T03:32:49.031Z,16.13
2022-08-23T03:35:17.249Z,16.07
2022-08-23T03:37:46.589Z,16.34
2022-08-23T03:40:14.242Z,16.13
2022-08-23T03:42:41.889Z,16.14
2022-08-23T03:45:10.086Z,15.98
2022-08-23T03:47:37.708Z,16.25
2022-08-23T03:50:05.956Z,16.10
2022-08-23T03:52:33.547Z,15.86
2022-08-23T03:55:02.509Z,15.95
2022-08-23T03:57:30.156Z,16.42
2022-08-23T03:59:59.822Z,16.24
2022-08-23T04:02:27.633Z,15.92
2022-08-23T04:04:55.214Z,15.63
2022-08-23T04:07:22.899Z,15.53
2022-08-23T04:09:54.868Z,15.53
2022-08-23T04:12:24.222Z,15.53
2022-08-23T04:14:52.366Z,15.71
2022-08-23T04:17:21.024Z,15.59
2022-08-23T04:19:49.306Z,15.82
2022-08-23T04:22:19.738Z,15.57
2022-08-23T04:24:47.850Z,15.48
2022-08-23T04:27:15.611Z,15.53
2022-08-23T04:29:44.692Z,15.40
2022-08-23T04:32:12.679Z,15.71
2022-08-23T04:34:42.378Z,15.93
2022-08-23T04:37:13.682Z,15.65
2022-08-23T04:39:55.778Z,15.74
2022-08-23T04:42:24.090Z,15.98
2022-08-23T04:44:53.509Z,15.94
2022-08-23T04:47:21.374Z,16.29
2022-08-23T04:49:48.963Z,16.22
2022-08-23T04:52:19.431Z,16.29
2022-08-23T04:54:47.748Z,16.66
2022-08-23T04:57:16.596Z,16.82
2022-08-23T04:59:44.279Z,16.85
2022-08-23T05:02:13.377Z,16.77
2022-08-23T05:04:41.313Z,16.87
2022-08-23T05:07:08.886Z,16.97
2022-08-23T05:09:36.552Z,17.16
2022-08-23T05:12:04.739Z,17.23
2022-08-23T05:14:32.725Z,17.49
2022-08-23T05:17:00.306Z,17.58
2022-08-23T05:19:29.335Z,17.82
2022-08-23T05:21:57.330Z,18.12
2022-08-23T05:24:24.995Z,18.05
2022-08-23T05:26:52.573Z,18.26
2022-08-23T05:29:21.402Z,18.34
2022-08-23T05:31:49.887Z,18.33
2022-08-23T05:34:17.790Z,18.30
2022-08-23T05:36:56.248Z,18.37
2022-08-23T05:39:36.007Z,18.51
2022-08-23T05:42:05.014Z,18.64
2022-08-23T05:44:36.279Z,18.77
2022-08-23T05:47:04.975Z,18.84
2022-08-23T05:49:38.630Z,18.88
2022-08-23T05:52:09.303Z,18.95
2022-08-23T05:54:37.095Z,19.10
2022-08-23T05:57:05.240Z,19.15
2022-08-23T05:59:32.931Z,18.93
2022-08-23T06:02:00.510Z,18.97
2022-08-23T06:04:28.234Z,18.95
2022-08-23T06:06:58.690Z,19.31
2022-08-23T06:09:27.951Z,19.02
2022-08-23T06:11:55.551Z,18.76
2022-08-23T06:14:23.641Z,18.46
2022-08-23T06:16:55.860Z,18.50
2022-08-23T06:19:24.286Z,18.45
2022-08-23T06:21:53.017Z,18.37
2022-08-23T06:24:20.960Z,18.57
2022-08-23T06:26:49.973Z,20.66
2022-08-23T06:29:19.955Z,22.88
2022-08-23T06:31:49.940Z,23.73
2022-08-23T06:34:20.728Z,24.24
2022-08-23T06:36:50.140Z,23.93
2022-08-23T06:39:19.020Z,24.44
2022-08-23T06:41:48.557Z,25.20
2022-08-23T06:44:18.358Z,24.61
2022-08-23T06:46:46.756Z,22.91
2022-08-23T06:49:14.546Z,22.53
2022-08-23T06:51:43.795Z,21.57
2022-08-23T06:54:13.977Z,20.85
2022-08-23T06:56:42.886Z,20.76
2022-08-23T06:59:12.077Z,20.79
2022-08-23T07:01:45.503Z,20.41
2022-08-23T07:04:15.755Z,20.61
2022-08-23T07:06:43.626Z,20.24
2022-08-23T07:09:11.360Z,20.42
2022-08-23T07:11:39.358Z,20.12
2022-08-23T07:14:08.842Z,20.11
2022-08-23T07:16:38.915Z,20.14
2022-08-23T07:19:09.076Z,20.37
2022-08-23T07:21:36.825Z,20.66
2022-08-23T07:24:05.154Z,20.85
2022-08-23T07:26:32.910Z,21.05
2022-08-23T07:29:02.291Z,21.23
2022-08-23T07:31:32.818Z,21.47
2022-08-23T07:34:02.137Z,21.58
2022-08-23T07:36:32.469Z,21.73
2022-08-23T07:39:00.894Z,21.86
2022-08-23T07:41:32.777Z,22.05
2022-08-23T07:44:02.746Z,22.24
2022-08-23T07:46:31.325Z,22.40
2022-08-23T07:48:59.676Z,22.47
2022-08-23T07:51:28.428Z,22.44
2022-08-23T07:53:57.799Z,22.65
2022-08-23T07:56:25.666Z,22.61
2022-08-23T07:58:53.434Z,22.95
2022-08-23T08:01:23.525Z,22.93
2022-08-23T08:03:53.984Z,23.04
2022-08-23T08:06:23.364Z,22.87
2022-08-23T08:08:51.427Z,23.25
2022-08-23T08:11:22.482Z,23.02
2022-08-23T08:13:51.616Z,23.11
2022-08-23T08:16:24.132Z,23.27
2022-08-23T08:18:52.408Z,23.19
2022-08-23T08:21:20.457Z,23.14
2022-08-23T08:23:48.058Z,23.39
2022-08-23T08:26:16.028Z,23.61
2022-08-23T08:28:46.195Z,23.52
2022-08-23T08:33:42.507Z,23.67
2022-08-23T08:36:10.474Z,24.15
2022-08-23T08:38:48.008Z,23.84
2022-08-23T08:41:21.121Z,23.90
2022-08-23T08:43:56.884Z,24.00
2022-08-23T08:46:28.403Z,23.95
2022-08-23T08:48:59.981Z,24.35
2022-08-23T08:51:39.120Z,24.24
2022-08-23T08:54:09.860Z,24.34
2022-08-23T08:56:39.547Z,24.42
2022-08-23T08:59:12.552Z,24.44
2022-08-23T09:01:40.509Z,24.41
2022-08-23T09:04:08.849Z,24.42
2022-08-23T09:06:44.848Z,24.46
2022-08-23T09:09:19.888Z,24.79
2022-08-23T09:11:54.941Z,24.89
2022-08-23T09:14:38.923Z,25.19
2022-08-23T09:17:12.739Z,25.04
2022-08-23T09:19:40.788Z,25.26
2022-08-23T09:22:13.318Z,25.64
2022-08-23T09:24:41.507Z,25.50
2022-08-23T09:27:09.652Z,25.32
2022-08-23T09:29:42.444Z,25.73
2022-08-23T09:32:28.308Z,25.82
2022-08-23T09:35:07.393Z,25.96
2022-08-23T09:37:55.127Z,25.35
2022-08-23T09:40:32.136Z,25.51
2022-08-23T09:43:07.032Z,25.85
2022-08-23T09:45:38.587Z,26.15
2022-08-23T09:48:07.402Z,26.30
2022-08-23T09:50:38.947Z,26.16
2022-08-23T09:53:09.494Z,26.16
2022-08-23T09:55:38.818Z,26.49
2022-08-23T09:58:08.795Z,26.71
2022-08-23T10:00:38.532Z,26.96
2022-08-23T10:03:26.515Z,26.70
2022-08-23T10:05:55.875Z,26.97
2022-08-23T10:08:25.652Z,27.00
2022-08-23T10:10:54.890Z,26.96
2022-08-23T10:13:23.111Z,26.38
2022-08-23T10:16:00.908Z,27.16
2022-08-23T10:18:39.142Z,27.39
2022-08-23T10:21:20.937Z,26.29
2022-08-23T10:23:58.715Z,26.85
2022-08-23T10:26:29.019Z,26.89
2022-08-23T10:29:17.606Z,27.21
2022-08-23T10:31:51.778Z,27.36
2022-08-23T10:34:32.388Z,27.37
2022-08-23T10:37:08.840Z,27.06
2022-08-23T10:39:45.152Z,26.97
2022-08-23T10:42:20.208Z,27.09
2022-08-23T10:44:51.904Z,27.56
2022-08-23T10:47:31.199Z,27.78
2022-08-23T10:50:01.694Z,27.33
2022-08-23T10:52:32.209Z,27.42
2022-08-23T10:55:06.365Z,27.23
2022-08-23T10:57:36.259Z,27.59
2022-08-23T11:00:07.132Z,27.70
2022-08-23T11:02:42.551Z,28.03
2022-08-23T11:05:23.866Z,28.08
2022-08-23T11:08:01.139Z,27.86
2022-08-23T11:10:34.843Z,27.66
2022-08-23T11:13:06.117Z,27.88
2022-08-23T11:15:44.514Z,28.01
2022-08-23T11:18:38.197Z,27.97
2022-08-23T11:21:09.914Z,28.15
2022-08-23T11:23:41.378Z,28.66
2022-08-23T11:26:11.332Z,28.66
2022-08-23T11:28:41.258Z,28.23
2022-08-23T11:31:27.385Z,28.39
2022-08-23T11:34:01.710Z,28.60
2022-08-23T11:36:31.032Z,28.73
2022-08-23T11:39:05.654Z,28.68
2022-08-23T11:41:34.206Z,28.87
2022-08-23T11:44:23.977Z,29.06
2022-08-23T11:47:03.270Z,29.22
2022-08-23T11:50:07.714Z,29.02
2022-08-23T11:52:54.569Z,29.44
2022-08-23T11:55:28.194Z,29.51
2022-08-23T11:58:14.039Z,29.58
2022-08-23T12:01:07.536Z,29.35
2022-08-23T12:03:55.988Z,29.32
2022-08-23T12:06:40.510Z,29.42
2022-08-23T12:09:15.185Z,29.38
2022-08-23T12:12:14.731Z,29.47
2022-08-23T12:14:54.903Z,29.86
2022-08-23T12:17:58.212Z,29.49
2022-08-23T12:20:31.586Z,29.26
2022-08-23T12:23:07.811Z,29.75
2022-08-23T12:25:37.393Z,29.33
2022-08-23T12:28:13.268Z,29.46
2022-08-23T12:30:51.330Z,29.31
2022-08-23T12:33:27.234Z,29.51
2022-08-23T12:36:00.951Z,29.52
2022-08-23T12:38:36.104Z,29.16
2022-08-23T12:41:18.156Z,29.03
2022-08-23T12:43:57.002Z,28.88
2022-08-23T12:46:40.425Z,29.40
2022-08-23T12:49:13.174Z,29.42
2022-08-23T12:51:49.839Z,29.03
2022-08-23T12:54:19.788Z,29.23
2022-08-23T12:56:50.371Z,30.07
2022-08-23T12:59:35.131Z,30.72
2022-08-23T13:02:05.088Z,30.70
2022-08-23T13:04:33.615Z,30.63
2022-08-23T13:07:05.920Z,30.57
2022-08-23T13:09:35.383Z,30.24
2022-08-23T13:12:06.271Z,30.68
2022-08-23T13:14:37.135Z,30.97
2022-08-23T13:17:18.668Z,30.74
2022-08-23T13:19:47.256Z,30.89
2022-08-23T13:22:22.101Z,29.71
2022-08-23T13:25:25.017Z,30.46
2022-08-23T13:27:54.753Z,30.31
2022-08-23T13:30:24.591Z,29.91
2022-08-23T13:32:53.993Z,29.92
2022-08-23T13:35:34.175Z,30.29
2022-08-23T13:38:09.929Z,30.49
2022-08-23T13:40:42.937Z,30.53
2022-08-23T13:43:15.996Z,30.62
2022-08-23T13:45:47.816Z,30.75
2022-08-23T13:48:20.619Z,30.85
2022-08-23T13:50:48.531Z,30.98
2022-08-23T13:53:16.174Z,31.09
2022-08-23T13:55:47.343Z,30.81
2022-08-23T13:58:24.921Z,30.54
2022-08-23T14:00:55.771Z,30.00
2022-08-23T14:03:24.236Z,30.53
2022-08-23T14:05:52.756Z,31.15
2022-08-23T14:08:20.531Z,30.84
2022-08-23T14:10:48.523Z,30.88
2022-08-23T14:13:18.423Z,30.55
2022-08-23T14:18:34.925Z,29.51
2022-08-23T14:21:04.199Z,29.65
2022-08-23T14:23:31.823Z,29.59
2022-08-23T14:25:59.769Z,29.69
2022-08-23T14:28:31.211Z,30.55
2022-08-23T14:30:58.984Z,31.18
2022-08-23T14:33:26.632Z,30.94
2022-08-23T14:35:54.321Z,30.70
2022-08-23T14:38:22.035Z,30.62
2022-08-23T14:40:53.640Z,30.65
2022-08-23T14:43:22.214Z,30.82
2022-08-23T14:45:54.828Z,30.90
2022-08-23T14:48:23.168Z,29.93
2022-08-23T14:50:50.942Z,29.71
2022-08-23T14:53:33.404Z,29.83
2022-08-23T14:56:20.538Z,29.88
2022-08-23T14:58:48.883Z,30.08
2022-08-23T15:01:19.481Z,30.24
2022-08-23T15:03:48.147Z,29.98
2022-08-23T15:06:17.351Z,29.96
2022-08-23T15:08:45.582Z,29.98
2022-08-23T15:14:03.421Z,28.74
2022-08-23T15:16:33.495Z,29.15
2022-08-23T15:19:01.330Z,29.62
2022-08-23T15:21:29.043Z,29.84
2022-08-23T15:23:56.631Z,29.71
2022-08-23T15:26:27.680Z,29.46
2022-08-23T15:28:55.310Z,29.22
2022-08-23T15:31:23.996Z,29.09
2022-08-23T15:33:53.005Z,29.15
2022-08-23T15:36:20.754Z,29.04
2022-08-23T15:38:49.697Z,28.93
2022-08-23T15:41:18.510Z,29.02
2022-08-23T15:43:46.154Z,29.14
2022-08-23T15:46:18.227Z,29.15
2022-08-23T15:48:49.467Z,29.23
2022-08-23T15:51:19.186Z,29.17
2022-08-23T15:53:47.268Z,29.11
2022-08-23T15:56:18.136Z,29.08
2022-08-23T15:58:45.820Z,28.80
2022-08-23T16:01:13.488Z,28.92
2022-08-23T16:03:43.700Z,28.87
2022-08-23T16:06:13.260Z,28.91
2022-08-23T16:08:43.902Z,28.97
2022-08-23T16:11:12.744Z,29.01
2022-08-23T16:13:45.468Z,28.96
2022-08-23T16:16:17.834Z,28.89
2022-08-23T16:18:45.603Z,28.97
2022-08-23T16:21:13.696Z,29.07
2022-08-23T16:23:43.061Z,29.05
2022-08-23T16:26:12.002Z,29.09
2022-08-23T16:28:44.289Z,29.29
2022-08-23T16:31:12.106Z,29.37
2022-08-23T16:33:40.443Z,29.25
2022-08-23T16:36:09.154Z,29.43
2022-08-23T16:38:37.614Z,29.56
2022-08-23T16:41:06.996Z,29.65
2022-08-23T16:43:34.583Z,29.66
2022-08-23T16:46:02.255Z,29.40
2022-08-23T16:48:30.561Z,29.16
2022-08-23T16:50:58.224Z,28.91
2022-08-23T16:53:26.839Z,28.96
2022-08-23T16:55:55.623Z,29.50
2022-08-23T16:58:25.949Z,29.52
2022-08-23T17:00:53.665Z,29.41
2022-08-23T17:03:21.487Z,29.45
2022-08-23T17:05:49.394Z,29.19
2022-08-23T17:08:17.016Z,28.98
2022-08-23T17:10:45.363Z,28.83
2022-08-23T17:13:13.702Z,28.98
2022-08-23T17:15:42.704Z,28.87
2022-08-23T17:18:10.292Z,28.79
2022-08-23T17:20:39.466Z,28.55
2022-08-23T17:23:07.521Z,28.56
2022-08-23T17:25:35.950Z,28.60
2022-08-23T17:28:03.991Z,28.54
2022-08-23T17:30:32.402Z,28.07
2022-08-23T17:33:01.498Z,27.83
2022-08-23T17:35:33.724Z,27.77
2022-08-23T17:38:02.533Z,27.57
2022-08-23T17:40:32.292Z,27.41
2022-08-23T17:43:00.816Z,27.21
2022-08-23T17:45:29.008Z,27.04
2022-08-23T17:47:56.667Z,26.83
2022-08-23T17:50:25.889Z,26.63
2022-08-23T17:52:53.488Z,26.47
2022-08-23T17:55:21.746Z,26.25
2022-08-23T17:57:50.228Z,25.94
2022-08-23T18:00:19.961Z,25.70
2022-08-23T18:02:47.532Z,25.54
2022-08-23T18:05:15.708Z,25.40
2022-08-23T18:07:45.034Z,25.27
2022-08-23T18:10:14.164Z,25.15
2022-08-23T18:12:42.809Z,24.99
2022-08-23T18:15:11.654Z,24.81
2022-08-23T18:17:40.289Z,24.69
2022-08-23T18:20:10.540Z,24.51
2022-08-23T18:22:38.611Z,24.47
2022-08-23T18:25:11.218Z,24.35
2022-08-23T18:27:56.333Z,24.26
2022-08-23T18:30:24.264Z,24.20
2022-08-23T18:32:52.023Z,24.04
2022-08-23T18:35:19.717Z,23.96
2022-08-23T18:37:47.341Z,23.84
2022-08-23T18:40:16.336Z,23.74
2022-08-23T18:42:44.955Z,23.65
2022-08-23T18:45:13.802Z,23.42
2022-08-23T18:47:41.869Z,23.28
2022-08-23T18:50:12.750Z,23.13
2022-08-23T18:52:40.352Z,22.99
2022-08-23T18:55:08.967Z,22.85
2022-08-23T18:57:38.908Z,22.73
2022-08-23T19:00:10.134Z,22.61
2022-08-23T19:02:37.708Z,22.51
2022-08-23T19:05:05.894Z,22.40
2022-08-23T19:07:33.471Z,22.30
2022-08-23T19:10:01.329Z,22.19
2022-08-23T19:12:29.347Z,22.11
2022-08-23T19:14:58.289Z,22.07
2022-08-23T19:17:26.527Z,22.04
2022-08-23T19:19:54.319Z,22.05
2022-08-23T19:22:21.922Z,22.01
2022-08-23T19:24:49.530Z,21.96
2022-08-23T19:27:17.093Z,21.91
2022-08-23T19:29:44.727Z,21.80
2022-08-23T19:32:13.916Z,21.76
2022-08-23T19:34:42.069Z,21.72
2022-08-23T19:37:10.866Z,21.49
2022-08-23T19:39:48.402Z,21.78
2022-08-23T19:42:16.059Z,21.45
2022-08-23T19:44:43.684Z,21.31
2022-08-23T19:47:13.368Z,21.22
2022-08-23T19:49:48.373Z,21.18
2022-08-23T19:52:15.987Z,21.16
2022-08-23T19:54:43.598Z,21.18
2022-08-23T19:57:12.000Z,21.07
2022-08-23T19:59:40.291Z,21.01
2022-08-23T20:02:09.675Z,21.00
2022-08-23T20:04:39.284Z,20.79
2022-08-23T20:07:07.026Z,20.76
2022-08-23T20:09:35.195Z,20.80
2022-08-23T20:12:03.149Z,20.66
2022-08-23T20:14:32.955Z,20.68
2022-08-23T20:17:03.269Z,20.63
2022-08-23T20:19:31.271Z,20.49
2022-08-23T20:22:20.214Z,20.44
2022-08-23T20:24:52.075Z,20.30
2022-08-23T20:27:24.490Z,20.43
2022-08-23T20:29:58.862Z,20.55
2022-08-23T20:32:26.673Z,20.56
2022-08-23T20:34:54.286Z,20.61
2022-08-23T20:37:23.848Z,20.25
2022-08-23T20:39:52.297Z,20.29
2022-08-23T20:42:20.375Z,20.52
2022-08-23T20:44:48.041Z,20.65
2022-08-23T20:47:15.767Z,20.72
2022-08-23T20:49:43.423Z,20.87
2022-08-23T20:52:11.902Z,20.93
2022-08-23T20:54:40.868Z,20.97
2022-08-23T20:57:08.466Z,20.91
2022-08-23T20:59:38.891Z,20.88
2022-08-23T21:02:08.643Z,20.89
2022-08-23T21:04:36.258Z,20.82
2022-08-23T21:07:08.165Z,20.79
2022-08-23T21:09:35.990Z,20.72
2022-08-23T21:12:05.985Z,20.76
2022-08-23T21:14:33.777Z,20.87
2022-08-23T21:17:01.395Z,20.87
2022-08-23T21:19:29.903Z,20.79
2022-08-23T21:21:58.255Z,21.11
2022-08-23T21:24:27.197Z,20.93
2022-08-23T21:26:54.788Z,20.87
2022-08-23T21:29:23.731Z,20.92
2022-08-23T21:31:51.371Z,20.93
2022-08-23T21:34:19.495Z,20.78
2022-08-23T21:36:47.086Z,20.70
2022-08-23T21:39:14.686Z,20.88
2022-08-23T21:41:44.238Z,20.86
2022-08-23T21:44:13.987Z,20.78
2022-08-23T21:46:43.329Z,20.72
2022-08-23T21:49:12.149Z,20.85
2022-08-23T21:51:40.662Z,20.77
2022-08-23T21:54:09.727Z,20.75
2022-08-23T21:56:37.486Z,20.79
2022-08-23T21:59:07.453Z,20.82
2022-08-23T22:01:36.242Z,20.86
2022-08-23T22:04:07.389Z,20.84
2022-08-23T22:06:36.283Z,20.81
2022-08-23T22:09:05.080Z,20.60
2022-08-23T22:11:32.663Z,20.42
2022-08-23T22:14:00.264Z,20.30
2022-08-23T22:16:28.323Z,20.24
2022-08-23T22:18:55.899Z,20.07
2022-08-23T22:21:24.826Z,20.01
2022-08-23T22:23:52.492Z,19.97
2022-08-23T22:26:20.300Z,19.93
2022-08-23T22:28:47.900Z,19.88
2022-08-23T22:31:15.942Z,19.79
2022-08-23T22:33:45.036Z,19.71
2022-08-23T22:36:16.403Z,19.55
2022-08-23T22:38:46.606Z,19.42
2022-08-23T22:41:16.866Z,19.36
2022-08-23T22:43:44.464Z,19.36
2022-08-23T22:46:12.878Z,19.25
2022-08-23T22:48:40.944Z,19.17
2022-08-23T22:51:11.318Z,19.06
2022-08-23T22:53:41.899Z,18.95
2022-08-23T22:56:12.186Z,18.94
2022-08-23T22:58:40.314Z,18.91
2022-08-23T23:01:13.440Z,18.83
2022-08-23T23:03:42.067Z,18.75
2022-08-23T23:06:10.219Z,18.67
2022-08-23T23:08:37.862Z,18.65
2022-08-23T23:11:07.419Z,18.66
2022-08-23T23:13:36.550Z,18.60
2022-08-23T23:16:06.614Z,18.48
2022-08-23T23:18:34.724Z,18.45
2022-08-23T23:21:02.543Z,18.44
2022-08-23T23:23:31.132Z,18.41
2022-08-23T23:25:59.207Z,18.38
2022-08-23T23:28:27.504Z,18.37
2022-08-23T23:30:57.730Z,18.35
2022-08-23T23:33:25.926Z,18.42
2022-08-23T23:35:53.560Z,18.44
2022-08-23T23:38:21.211Z,18.47
2022-08-23T23:40:48.802Z,18.52
2022-08-23T23:43:16.908Z,18.54
2022-08-23T23:45:44.652Z,18.49
2022-08-23T23:48:13.652Z,18.36
2022-08-23T23:50:45.312Z,18.29
2022-08-23T23:53:14.904Z,18.19
2022-08-23T23:55:42.559Z,18.13
2022-08-23T23:58:10.415Z,18.03
